Time;durP1;ratioP1;P1;durP2;ratioP2;P2;SDS_P1;SDS_P2;PMS_P1;PMS_P2;Temp;Humidity;BMP_temperature;BMP_pressure;BME280_temperature;BME280_humidity;BME280_pressure;Samples;Min_cycle;Max_cycle;Signal;HPM_P1;HPM_P2
2023/07/03 00:01:16;;;;;;;23.15;19.05;;;;;;;-143.21;76.37;71350.44;5134492;27;20191;-82
2023/07/03 00:03:43;;;;;;;23.13;18.42;;;;;;;-143.21;76.67;71364.31;5133217;27;20223;-82
2023/07/03 00:06:09;;;;;;;25.50;19.67;;;;;;;-143.21;76.90;71364.31;5133259;27;20196;-82
2023/07/03 00:08:36;;;;;;;22.38;18.17;;;;;;;-143.21;76.57;71362.34;5133060;27;20195;-82
2023/07/03 00:11:06;;;;;;;23.15;18.85;;;;;;;-143.21;76.71;71358.38;5133094;27;20203;-80
2023/07/03 00:13:32;;;;;;;28.25;20.13;;;;;;;-143.21;77.23;71378.19;5132581;27;20198;-80
2023/07/03 00:16:00;;;;;;;26.88;20.20;;;;;;;-143.21;77.37;71378.19;5133342;27;20274;-79
2023/07/03 00:18:27;;;;;;;24.70;19.50;;;;;;;-143.21;77.89;71382.16;5133089;27;20685;-80
2023/07/03 00:20:54;;;;;;;23.90;19.38;;;;;;;-143.21;77.66;71380.19;5132854;27;20222;-80
2023/07/03 00:23:21;;;;;;;23.40;19.60;;;;;;;-143.21;77.71;71382.16;5136380;27;20203;-80
2023/07/03 00:25:48;;;;;;;24.08;19.75;;;;;;;-143.21;77.91;71388.09;5153667;27;20187;-80
2023/07/03 00:28:16;;;;;;;26.42;19.35;;;;;;;-143.21;77.92;71388.09;5133536;27;20199;-81
2023/07/03 00:30:44;;;;;;;23.98;18.75;;;;;;;-143.21;77.83;71382.16;5148413;27;20210;-81
2023/07/03 00:33:12;;;;;;;23.90;20.13;;;;;;;-143.21;77.94;71384.16;5152888;27;20197;-80
2023/07/03 00:35:39;;;;;;;23.83;20.02;;;;;;;-143.21;77.87;71382.16;5152665;27;20590;-80
2023/07/03 00:38:09;;;;;;;25.90;19.40;;;;;;;-143.21;77.86;71378.19;5153577;27;20258;-81
2023/07/03 00:40:36;;;;;;;23.65;19.65;;;;;;;-143.21;77.58;71388.09;5152708;27;20229;-81
2023/07/03 00:43:03;;;;;;;22.55;19.63;;;;;;;-143.21;77.76;71384.16;5152678;27;20220;-80
2023/07/03 00:45:34;;;;;;;26.05;20.10;;;;;;;-143.21;77.88;71388.09;5153664;27;20214;-81
2023/07/03 00:48:01;;;;;;;27.42;20.90;;;;;;;-143.21;77.72;71390.09;5153694;27;20246;-80
2023/07/03 00:50:28;;;;;;;26.55;20.83;;;;;;;-143.21;77.74;71384.16;5152823;27;20190;-81
2023/07/03 00:53:00;;;;;;;24.83;19.25;;;;;;;-143.21;78.00;71394.06;5153390;27;20645;-79
2023/07/03 00:55:27;;;;;;;24.65;19.90;;;;;;;-143.21;78.41;71400.00;5153656;27;20268;-80
2023/07/03 00:57:54;;;;;;;26.90;19.83;;;;;;;-143.21;78.39;71398.03;5153353;27;20183;-81
2023/07/03 01:00:22;;;;;;;26.98;20.85;;;;;;;-143.21;78.49;71403.97;5153156;27;20218;-81
2023/07/03 01:03:00;;;;;;;27.10;20.77;;;;;;;-143.21;78.69;71405.94;5152970;27;20225;-80
2023/07/03 01:05:30;;;;;;;24.65;19.50;;;;;;;-143.21;78.83;71407.94;5149801;27;20641;-80
2023/07/03 01:07:58;;;;;;;25.55;20.20;;;;;;;-143.21;78.70;71409.91;5147168;27;20202;-80
2023/07/03 01:10:28;;;;;;;25.05;20.35;;;;;;;-143.21;78.95;71409.91;5152554;27;20191;-80
2023/07/03 01:12:59;;;;;;;23.98;20.05;;;;;;;-143.21;79.19;71411.91;5152471;27;20201;-80
2023/07/03 01:15:29;;;;;;;25.63;21.40;;;;;;;-143.21;79.27;71407.94;5152388;27;20209;-80
2023/07/03 01:18:00;;;;;;;25.42;20.88;;;;;;;-143.21;79.55;71413.88;5153033;27;20657;-80
2023/07/03 01:20:32;;;;;;;26.27;21.02;;;;;;;-143.21;79.67;71427.75;5153064;27;20230;-80
2023/07/03 01:23:06;;;;;;;26.15;21.58;;;;;;;-143.21;79.98;71421.81;5153356;27;20178;-81
2023/07/03 01:25:38;;;;;;;28.05;21.70;;;;;;;-143.21;80.08;71421.81;5153328;27;20195;-80
2023/07/03 01:28:08;;;;;;;28.58;22.45;;;;;;;-143.21;80.48;71433.72;5153154;27;20194;-81
2023/07/03 01:30:36;;;;;;;26.13;21.25;;;;;;;-143.21;80.31;71427.75;5152463;27;20198;-79
2023/07/03 01:33:04;;;;;;;25.10;21.10;;;;;;;-143.21;80.53;71435.69;5151381;27;20198;-80
2023/07/03 01:35:32;;;;;;;30.40;20.92;;;;;;;-143.21;81.24;71443.63;5138657;27;20229;-80
2023/07/03 01:38:01;;;;;;;28.70;23.45;;;;;;;-143.21;81.21;71435.69;5140646;27;20310;-79
2023/07/03 01:40:29;;;;;;;28.08;22.10;;;;;;;-143.21;81.00;71433.72;5133149;27;20223;-79
2023/07/03 01:42:58;;;;;;;27.55;21.38;;;;;;;-143.21;81.18;71429.75;5137710;27;20211;-79
2023/07/03 01:45:25;;;;;;;32.42;22.08;;;;;;;-143.21;81.31;71437.69;5152593;27;20560;-80
2023/07/03 01:47:52;;;;;;;27.60;22.23;;;;;;;-143.21;81.42;71433.72;5152717;27;20191;-80
2023/07/03 01:50:29;;;;;;;28.75;22.23;;;;;;;-143.21;81.69;71441.63;5152847;27;20191;-79
2023/07/03 01:53:00;;;;;;;29.08;21.77;;;;;;;-143.21;81.90;71447.59;5152328;27;20213;-79
2023/07/03 01:55:39;;;;;;;28.70;22.33;;;;;;;-143.21;82.10;71449.56;5152362;27;20191;-80
2023/07/03 01:58:16;;;;;;;28.95;22.67;;;;;;;-143.21;82.23;71447.59;5152647;27;20179;-79
2023/07/03 02:00:48;;;;;;;26.15;21.35;;;;;;;-143.21;81.93;71437.69;5152215;27;20229;-80
2023/07/03 02:03:24;;;;;;;26.67;21.75;;;;;;;-143.21;81.92;71445.59;5154852;27;20240;-79
2023/07/03 02:05:55;;;;;;;26.42;21.25;;;;;;;-143.21;82.19;71445.59;5149767;27;20195;-79
2023/07/03 02:08:23;;;;;;;29.02;21.85;;;;;;;-143.21;82.34;71449.56;5135761;27;20594;-80
2023/07/03 02:10:50;;;;;;;27.05;21.15;;;;;;;-143.21;82.13;71445.59;5135320;27;20601;-79
2023/07/03 02:13:18;;;;;;;30.75;21.65;;;;;;;-143.21;82.30;71447.59;5136441;27;20606;-79
2023/07/03 02:15:45;;;;;;;27.85;21.30;;;;;;;-143.21;82.54;71451.56;5136001;27;20191;-79
2023/07/03 02:18:17;;;;;;;34.85;23.73;;;;;;;-143.21;82.89;71457.50;5135866;27;20259;-80
2023/07/03 02:20:44;;;;;;;28.40;22.33;;;;;;;-143.21;82.88;71459.47;5135452;27;20238;-80
2023/07/03 02:23:11;;;;;;;33.80;26.42;;;;;;;-143.21;82.73;71449.56;5135672;27;20203;-79
2023/07/03 02:25:38;;;;;;;52.28;39.40;;;;;;;-143.21;82.77;71453.53;5135017;27;20609;-79
2023/07/03 02:28:05;;;;;;;55.42;41.45;;;;;;;-143.21;82.59;71457.50;5135173;27;20206;-79
2023/07/03 02:30:33;;;;;;;60.38;46.05;;;;;;;-143.21;82.65;71451.56;5135087;27;20199;-80
2023/07/03 02:33:00;;;;;;;50.83;38.50;;;;;;;-143.21;82.67;71447.59;5135073;27;20565;-79
2023/07/03 02:35:27;;;;;;;35.85;27.77;;;;;;;-143.21;82.74;71449.56;5135433;27;20222;-80
2023/07/03 02:37:54;;;;;;;30.67;22.23;;;;;;;-143.21;82.77;71445.59;5135412;27;20198;-80
2023/07/03 02:40:21;;;;;;;27.23;21.20;;;;;;;-143.21;82.70;71441.63;5135140;27;20216;-80
2023/07/03 02:42:48;;;;;;;26.33;20.35;;;;;;;-143.21;82.99;71441.63;5135142;27;20196;-78
2023/07/03 02:45:14;;;;;;;27.92;20.65;;;;;;;-143.21;83.20;71449.56;5135000;27;20194;-79
2023/07/03 02:47:43;;;;;;;27.85;21.75;;;;;;;-143.21;83.36;71447.59;5134597;27;20195;-79
2023/07/03 02:50:10;;;;;;;25.60;20.58;;;;;;;-143.21;82.87;71445.59;5134571;27;20199;-79
2023/07/03 02:52:37;;;;;;;26.38;20.15;;;;;;;-143.21;82.78;71439.66;5134632;27;20199;-79
2023/07/03 02:55:04;;;;;;;26.17;20.38;;;;;;;-143.21;82.89;71433.72;5134939;27;20192;-79
2023/07/03 02:57:31;;;;;;;27.35;21.17;;;;;;;-143.21;83.02;71435.69;5134385;27;20206;-79
2023/07/03 02:59:58;;;;;;;29.50;20.83;;;;;;;-143.21;82.93;71435.69;5140192;27;20219;-79
2023/07/03 03:02:24;;;;;;;27.85;21.27;;;;;;;-143.21;83.07;71431.72;5155316;27;20186;-79
2023/07/03 03:04:53;;;;;;;30.00;21.30;;;;;;;-143.21;83.09;71435.69;5155082;27;20251;-79
2023/07/03 03:07:19;;;;;;;30.27;22.00;;;;;;;-143.21;82.76;71431.72;5139270;27;20664;-80
2023/07/03 03:09:46;;;;;;;25.75;21.13;;;;;;;-143.21;83.09;71429.75;5155441;27;20186;-81
2023/07/03 03:12:13;;;;;;;29.67;22.05;;;;;;;-143.21;83.16;71439.66;5155198;27;20190;-80
2023/07/03 03:14:40;;;;;;;28.48;20.67;;;;;;;-143.21;83.43;71435.69;5154208;27;20195;-81
2023/07/03 03:17:07;;;;;;;25.00;20.98;;;;;;;-143.21;83.33;71429.75;5154919;27;20203;-80
2023/07/03 03:19:34;;;;;;;26.90;19.80;;;;;;;-143.21;83.39;71431.72;5154259;27;20297;-79
2023/07/03 03:22:02;;;;;;;25.35;20.13;;;;;;;-143.21;83.28;71431.72;5154720;27;20230;-80
2023/07/03 03:24:28;;;;;;;26.48;21.23;;;;;;;-143.21;83.24;71425.78;5154796;27;20214;-79
2023/07/03 03:26:55;;;;;;;28.05;22.65;;;;;;;-143.21;83.04;71423.78;5154883;27;20202;-80
2023/07/03 03:29:22;;;;;;;26.20;21.52;;;;;;;-143.21;83.34;71435.69;5154580;27;20191;-82
2023/07/03 03:31:49;;;;;;;26.50;21.25;;;;;;;-143.21;83.46;71427.75;5154651;27;20614;-81
2023/07/03 03:34:16;;;;;;;27.17;21.50;;;;;;;-143.21;83.49;71429.75;5154534;27;20194;-80
2023/07/03 03:36:43;;;;;;;29.35;21.75;;;;;;;-143.21;83.52;71425.78;5140438;27;20195;-80
2023/07/03 03:39:11;;;;;;;30.63;21.90;;;;;;;-143.21;83.19;71421.81;5133519;27;20246;-80
2023/07/03 03:41:38;;;;;;;25.02;20.90;;;;;;;-143.21;83.07;71423.78;5133178;27;20194;-80
2023/07/03 03:44:05;;;;;;;27.52;21.38;;;;;;;-143.21;83.28;71419.84;5145648;27;20594;-80
2023/07/03 03:46:32;;;;;;;26.52;22.08;;;;;;;-143.21;83.96;71437.69;5140902;27;20230;-80
2023/07/03 03:48:59;;;;;;;30.15;22.42;;;;;;;-143.21;83.99;71433.72;5127584;27;20206;-80
2023/07/03 03:51:26;;;;;;;28.02;21.50;;;;;;;-143.21;84.17;71431.72;5144987;27;20255;-80
2023/07/03 03:53:52;;;;;;;27.67;21.40;;;;;;;-143.21;84.63;71443.63;5154176;27;20194;-79
2023/07/03 03:56:21;;;;;;;30.15;21.92;;;;;;;-143.21;85.12;71451.56;5153849;27;20191;-81
2023/07/03 03:58:48;;;;;;;27.85;21.63;;;;;;;-143.21;85.43;71455.53;5154271;27;20195;-82
2023/07/03 04:01:15;;;;;;;30.63;21.83;;;;;;;-143.21;86.44;71471.38;5154112;27;20218;-81
2023/07/03 04:03:42;;;;;;;30.20;22.88;;;;;;;-143.21;86.77;71469.41;5140396;27;20207;-81
2023/07/03 04:06:09;;;;;;;30.35;22.55;;;;;;;-143.21;86.87;71467.41;5137689;27;20202;-81
2023/07/03 04:08:36;;;;;;;28.33;21.52;;;;;;;-143.21;87.50;71487.25;5154011;27;20286;-81
2023/07/03 04:11:03;;;;;;;30.08;22.05;;;;;;;-143.21;88.59;71501.13;5153994;27;20733;-81
2023/07/03 04:13:31;;;;;;;29.55;22.67;;;;;;;-143.21;89.24;71507.06;5153095;27;20243;-81
2023/07/03 04:16:01;;;;;;;30.50;21.85;;;;;;;-143.21;89.31;71503.09;5132997;27;20252;-80
2023/07/03 04:18:29;;;;;;;28.60;22.20;;;;;;;-143.21;89.06;71485.25;5132511;27;20616;-80
2023/07/03 04:20:56;;;;;;;30.08;23.30;;;;;;;-143.21;89.62;71505.09;5134323;27;20231;-80
2023/07/03 04:23:23;;;;;;;27.55;22.52;;;;;;;-143.21;89.99;71515.00;5136320;27;20730;-79
2023/07/03 04:25:50;;;;;;;31.98;22.85;;;;;;;-143.21;90.32;71511.03;5152845;27;20266;-79
2023/07/03 04:28:19;;;;;;;30.80;23.25;;;;;;;-143.21;90.63;71513.03;5153821;27;20191;-79
2023/07/03 04:30:48;;;;;;;29.63;22.75;;;;;;;-143.21;90.84;71520.94;5153593;27;20665;-79
2023/07/03 04:33:15;;;;;;;27.63;21.27;;;;;;;-143.21;90.88;71511.03;5153421;27;20194;-80
2023/07/03 04:35:42;;;;;;;28.67;22.13;;;;;;;-143.21;89.58;71495.19;5153723;27;20317;-79
2023/07/03 04:38:09;;;;;;;28.98;22.25;;;;;;;-143.21;88.91;71493.19;5153268;27;20194;-80
2023/07/03 04:40:37;;;;;;;30.00;20.55;;;;;;;-143.21;89.27;71489.22;5153295;27;20206;-79
2023/07/03 04:43:06;;;;;;;27.92;20.98;;;;;;;-143.21;88.50;71485.25;5153205;27;20197;-79
2023/07/03 04:45:38;;;;;;;28.08;21.75;;;;;;;-143.21;87.72;71469.41;5153749;27;20197;-79
2023/07/03 04:48:06;;;;;;;30.88;22.13;;;;;;;-143.21;87.79;71469.41;5154228;27;20202;-83
2023/07/03 04:50:33;;;;;;;32.05;20.17;;;;;;;-143.21;87.82;71477.34;5152837;27;20274;-79
2023/07/03 04:53:00;;;;;;;31.70;21.73;;;;;;;-143.21;88.00;71475.34;5135476;27;20191;-78
2023/07/03 04:55:29;;;;;;;26.35;21.05;;;;;;;-143.21;87.59;71463.44;5138626;27;20608;-78
2023/07/03 04:57:57;;;;;;;30.00;21.63;;;;;;;-143.21;87.25;71453.53;5141977;27;20578;-79
2023/07/03 05:00:24;;;;;;;28.90;23.23;;;;;;;-143.21;86.98;71449.56;5151898;27;20601;-80
2023/07/03 05:02:52;;;;;;;26.40;20.70;;;;;;;-143.21;86.75;71453.53;5138659;27;20205;-79
2023/07/03 05:05:20;;;;;;;30.33;22.65;;;;;;;-143.21;86.20;71449.56;5149588;27;20210;-78
2023/07/03 05:07:47;;;;;;;28.33;21.42;;;;;;;-143.21;85.75;71433.72;5140351;27;20195;-78
2023/07/03 05:10:15;;;;;;;31.88;21.63;;;;;;;-143.21;85.70;71433.72;5152765;27;20218;-79
2023/07/03 05:12:42;;;;;;;29.13;21.83;;;;;;;-143.21;85.64;71425.78;5152868;27;20205;-79
2023/07/03 05:15:12;;;;;;;29.17;20.35;;;;;;;-143.21;85.45;71425.78;5151412;27;20583;-79
2023/07/03 05:17:39;;;;;;;28.20;20.15;;;;;;;-143.21;86.22;71445.59;5151827;27;20198;-80
2023/07/03 05:20:08;;;;;;;26.30;20.55;;;;;;;-143.21;86.38;71449.56;5151601;27;20671;-80
2023/07/03 05:22:37;;;;;;;27.10;20.67;;;;;;;-143.21;86.31;71441.63;5151452;27;20684;-79
2023/07/03 05:25:09;;;;;;;23.27;19.65;;;;;;;-143.21;86.15;71429.75;5151927;27;20221;-79
2023/07/03 05:27:36;;;;;;;24.00;19.75;;;;;;;-143.21;86.07;71433.72;5151702;27;20248;-79
2023/07/03 05:30:04;;;;;;;24.65;20.40;;;;;;;-143.21;86.15;71439.66;5141916;27;20199;-79
2023/07/03 05:32:31;;;;;;;25.25;19.95;;;;;;;-143.21;86.56;71439.66;5149761;27;20205;-79
2023/07/03 05:34:58;;;;;;;27.95;21.85;;;;;;;-143.21;86.75;71437.69;5152342;27;20198;-79
2023/07/03 05:37:25;;;;;;;31.73;21.02;;;;;;;-143.21;86.82;71427.75;5132809;27;20207;-79
2023/07/03 05:39:53;;;;;;;31.60;20.55;;;;;;;-143.21;86.30;71415.88;5136054;27;20219;-79
2023/07/03 05:42:20;;;;;;;30.42;21.60;;;;;;;-143.21;85.97;71400.00;5136467;27;20222;-78
2023/07/03 05:44:47;;;;;;;25.95;20.73;;;;;;;-143.21;85.51;71398.03;5139860;27;20195;-79
2023/07/03 05:47:16;;;;;;;27.17;20.95;;;;;;;-143.21;85.49;71402.00;5147682;27;20198;-79
2023/07/03 05:49:43;;;;;;;27.33;20.92;;;;;;;-143.21;85.14;71388.09;5156258;27;20198;-80
2023/07/03 05:52:11;;;;;;;27.13;20.85;;;;;;;-143.21;84.96;71388.09;5156024;27;20610;-79
2023/07/03 05:54:38;;;;;;;28.02;19.33;;;;;;;-143.21;85.15;71388.09;5156041;27;20187;-79
2023/07/03 05:57:09;;;;;;;26.73;20.45;;;;;;;-143.21;84.51;71382.16;5156289;27;20251;-79
2023/07/03 05:59:37;;;;;;;22.80;19.33;;;;;;;-143.21;84.06;71368.28;5156396;27;20211;-79
2023/07/03 06:02:09;;;;;;;25.50;20.50;;;;;;;-143.21;83.50;71366.31;5128312;27;20215;-80
2023/07/03 06:04:36;;;;;;;27.52;19.42;;;;;;;-143.21;83.41;71368.28;5113079;28;20208;-78
2023/07/03 06:07:12;;;;;;;25.75;19.77;;;;;;;-143.21;83.25;71362.34;5113237;28;20200;-87
2023/07/03 06:09:40;;;;;;;25.02;18.85;;;;;;;-143.21;82.65;71356.38;5115429;28;20279;-85
2023/07/03 06:12:12;;;;;;;28.58;19.27;;;;;;;-143.21;82.63;71360.34;5115051;28;20188;-86
2023/07/03 06:14:39;;;;;;;27.33;17.85;;;;;;;-143.21;81.90;71366.31;5114834;28;20173;-86
2023/07/03 06:17:06;;;;;;;24.95;18.05;;;;;;;-143.21;82.58;71364.31;5114368;28;20716;-84
2023/07/03 06:19:40;;;;;;;20.15;16.77;;;;;;;-143.21;83.36;71360.34;5113491;28;20193;-85
2023/07/03 06:22:37;;;;;;;21.80;17.98;;;;;;;-143.21;82.86;71322.69;5127554;27;20223;-87
2023/07/03 06:25:06;;;;;;;23.52;17.95;;;;;;;-143.21;82.20;71310.78;5120164;27;20582;-86
2023/07/03 06:27:35;;;;;;;21.98;18.73;;;;;;;-143.21;81.35;71298.91;5133832;27;20207;-85
2023/07/03 06:30:02;;;;;;;25.67;19.13;;;;;;;-143.21;81.14;71287.00;5147911;27;20301;-85
2023/07/03 06:32:28;;;;;;;20.55;16.63;;;;;;;-143.21;80.26;71294.94;5155815;27;20198;-86
2023/07/03 06:34:55;;;;;;;20.40;17.23;;;;;;;-143.21;80.53;71302.84;5155494;27;20190;-86
2023/07/03 06:37:28;;;;;;;23.77;17.85;;;;;;;-143.21;80.67;71304.84;5155626;27;20190;-86
2023/07/03 06:39:55;;;;;;;21.63;17.98;;;;;;;-143.21;80.74;71310.78;5155468;27;20199;-84
2023/07/03 06:42:22;;;;;;;20.38;16.88;;;;;;;-143.21;80.88;71306.81;5155394;27;20195;-84
2023/07/03 06:44:51;;;;;;;21.98;16.73;;;;;;;-143.21;80.42;71294.94;5155730;27;20239;-84
2023/07/03 06:47:18;;;;;;;20.95;16.58;;;;;;;-143.21;80.56;71279.06;5155637;27;20194;-85
2023/07/03 06:49:44;;;;;;;22.10;16.42;;;;;;;-143.21;80.13;71265.19;5154576;27;20262;-83
2023/07/03 06:52:11;;;;;;;23.60;17.00;;;;;;;-143.21;78.34;71259.25;5154350;27;20195;-84
2023/07/03 06:54:38;;;;;;;22.60;16.30;;;;;;;-143.21;79.16;71253.28;5154708;27;20210;-88
2023/07/03 06:57:05;;;;;;;20.73;16.25;;;;;;;-143.21;78.69;71247.34;5125774;27;20199;-87
2023/07/03 06:59:32;;;;;;;26.80;16.27;;;;;;;-143.21;79.11;71239.41;5132530;27;20203;-84
2023/07/03 07:02:00;;;;;;;21.33;15.70;;;;;;;-143.21;77.48;71237.44;5148269;27;20238;-88
2023/07/03 07:04:27;;;;;;;20.20;15.02;;;;;;;-143.21;78.26;71239.41;5155964;27;20202;-84
2023/07/03 07:06:55;;;;;;;21.60;15.52;;;;;;;-143.21;78.05;71237.44;5155995;27;20191;-83
2023/07/03 07:09:21;;;;;;;17.90;15.13;;;;;;;-143.21;77.72;71227.53;5155154;27;20252;-83
2023/07/03 07:11:48;;;;;;;29.58;16.23;;;;;;;-143.21;77.61;71189.84;5154307;27;20672;-84
2023/07/03 07:14:15;;;;;;;17.13;14.40;;;;;;;-143.21;75.58;71154.16;5155909;27;20202;-84
2023/07/03 07:16:42;;;;;;;19.83;14.77;;;;;;;-143.21;74.49;71130.38;5135667;27;20199;-84
2023/07/03 07:19:12;;;;;;;17.77;14.52;;;;;;;-143.21;74.19;71110.56;5142451;27;20214;-84
2023/07/03 07:21:41;;;;;;;16.48;13.65;;;;;;;-143.21;73.93;71102.63;5160019;27;20235;-86
2023/07/03 07:24:18;;;;;;;17.98;13.80;;;;;;;-143.21;73.62;71090.72;5155398;27;20259;-85
2023/07/03 07:26:46;;;;;;;18.40;13.90;;;;;;;-143.21;72.28;71088.75;5152909;27;20588;-86
2023/07/03 07:29:13;;;;;;;19.00;13.20;;;;;;;-143.21;70.90;71090.72;5154391;27;20217;-85
2023/07/03 07:31:39;;;;;;;23.65;14.35;;;;;;;-143.21;71.68;71080.81;5154692;27;20195;-85
2023/07/03 07:34:08;;;;;;;17.13;13.57;;;;;;;-143.21;71.92;71076.84;5154578;27;20193;-84
2023/07/03 07:36:37;;;;;;;22.48;13.65;;;;;;;-143.21;71.42;71070.91;5153713;27;20222;-84
2023/07/03 07:39:04;;;;;;;17.10;13.30;;;;;;;-143.21;71.49;71062.97;5133871;27;20203;-83
2023/07/03 07:41:35;;;;;;;16.13;12.07;;;;;;;-143.21;71.03;71043.16;5133526;27;20212;-83
2023/07/03 07:44:02;;;;;;;17.65;12.82;;;;;;;-143.21;70.00;71037.22;5135227;27;20207;-86
2023/07/03 07:46:31;;;;;;;18.63;13.35;;;;;;;-143.21;69.20;71049.09;5152562;27;20202;-82
2023/07/03 07:48:59;;;;;;;17.02;13.30;;;;;;;-143.21;69.02;71051.09;5148791;27;20226;-83
2023/07/03 07:51:26;;;;;;;14.90;12.27;;;;;;;-143.21;69.10;71041.16;5136133;27;20215;-83
2023/07/03 07:53:55;;;;;;;14.48;11.38;;;;;;;-143.21;68.21;71023.34;5133332;27;20203;-83
2023/07/03 07:56:23;;;;;;;13.98;11.40;;;;;;;-143.21;67.29;71027.28;5132952;27;20188;-83
2023/07/03 07:58:50;;;;;;;18.00;12.27;;;;;;;-143.21;68.32;71029.28;5152377;27;20202;-82
2023/07/03 08:01:17;;;;;;;16.58;12.63;;;;;;;-143.21;67.94;71039.19;5144385;27;20222;-81
2023/07/03 08:03:44;;;;;;;14.30;11.32;;;;;;;-143.21;68.13;71041.16;5153964;27;20560;-87
2023/07/03 08:06:12;;;;;;;15.38;12.10;;;;;;;-143.21;68.03;71031.25;5154143;27;20680;-83
2023/07/03 08:08:40;;;;;;;15.82;11.93;;;;;;;-143.21;67.66;71025.31;5137487;27;20203;-84
2023/07/03 08:11:10;;;;;;;16.65;12.70;;;;;;;-143.21;67.44;71009.44;5133185;27;20196;-84
2023/07/03 08:13:39;;;;;;;17.27;12.48;;;;;;;-143.21;68.12;71011.44;5133274;27;20188;-85
2023/07/03 08:16:07;;;;;;;14.48;12.02;;;;;;;-143.21;68.29;71003.50;5133037;27;20240;-84
2023/07/03 08:18:33;;;;;;;16.45;11.65;;;;;;;-143.21;67.67;70985.66;5131256;27;20184;-84
2023/07/03 08:21:00;;;;;;;17.25;11.25;;;;;;;-143.21;65.75;70985.66;5133954;27;20223;-84
2023/07/03 08:23:29;;;;;;;13.68;11.15;;;;;;;-143.21;65.87;70993.59;5141631;27;20199;-83
2023/07/03 08:25:56;;;;;;;16.88;11.25;;;;;;;-143.21;66.20;70983.69;5133414;27;20230;-84
2023/07/03 08:28:25;;;;;;;12.90;11.05;;;;;;;-143.21;65.44;70977.72;5140157;27;20632;-84
2023/07/03 08:30:52;;;;;;;14.63;11.05;;;;;;;-143.21;65.21;70951.97;5138106;27;20210;-84
2023/07/03 08:33:19;;;;;;;15.23;12.20;;;;;;;-143.21;64.38;70940.06;5138198;27;20565;-84
2023/07/03 08:35:46;;;;;;;17.83;11.80;;;;;;;-143.21;64.59;70949.97;5135544;27;20199;-83
2023/07/03 08:38:14;;;;;;;17.63;10.98;;;;;;;-143.21;63.33;70959.91;5133941;27;20183;-83
2023/07/03 08:40:42;;;;;;;14.18;10.88;;;;;;;-143.21;63.91;70963.84;5133036;27;20191;-84
2023/07/03 08:43:13;;;;;;;13.43;10.23;;;;;;;-143.21;64.28;70967.81;5131504;27;20281;-84
2023/07/03 08:45:43;;;;;;;14.63;12.00;;;;;;;-143.21;64.59;70953.94;5131645;27;20199;-84
2023/07/03 08:48:14;;;;;;;14.43;11.35;;;;;;;-143.21;64.19;70944.03;5133686;27;20186;-85
2023/07/03 08:50:45;;;;;;;14.55;10.38;;;;;;;-143.21;63.88;70932.13;5133017;27;20191;-85
2023/07/03 08:53:16;;;;;;;14.68;11.00;;;;;;;-143.21;63.56;70918.25;5133087;27;20200;-85
2023/07/03 08:55:48;;;;;;;13.13;9.90;;;;;;;-143.21;62.12;70918.25;5132832;27;20175;-85
2023/07/03 08:58:15;;;;;;;15.07;10.52;;;;;;;-143.21;61.35;70918.25;5133082;27;20179;-84
2023/07/03 09:00:59;;;;;;;14.88;10.20;;;;;;;-143.21;61.50;70924.22;5132922;27;20546;-84
2023/07/03 09:03:33;;;;;;;13.10;10.02;;;;;;;-143.21;61.86;70912.31;5132450;27;20185;-84
2023/07/03 09:06:10;;;;;;;17.25;10.20;;;;;;;-143.21;62.40;70896.47;5133154;27;20208;-84
2023/07/03 09:08:54;;;;;;;12.68;10.88;;;;;;;-143.21;62.41;70850.88;5132936;27;20180;-86
2023/07/03 09:11:27;;;;;;;12.77;10.63;;;;;;;-143.21;60.55;70835.00;5132456;27;20654;-86
2023/07/03 09:13:58;;;;;;;11.32;10.07;;;;;;;-143.21;60.18;70833.03;5132317;27;20564;-85
2023/07/03 09:16:26;;;;;;;13.15;9.95;;;;;;;-143.21;61.08;70815.19;5133085;28;20191;-89
2023/07/03 09:22:23;;;;;;;20.98;10.45;;;;;;;-143.21;60.17;70815.19;5132902;28;20217;-89
2023/07/03 09:24:54;;;;;;;12.35;10.15;;;;;;;-143.21;60.51;70807.25;5132840;28;20199;-86
2023/07/03 09:27:23;;;;;;;13.30;9.98;;;;;;;-143.21;60.32;70795.38;5132208;28;20662;-88
2023/07/03 09:29:51;;;;;;;11.95;9.60;;;;;;;-143.21;59.43;70795.38;5132135;28;20195;-86
2023/07/03 09:32:25;;;;;;;11.77;9.90;;;;;;;-143.21;58.66;70789.41;5132066;28;20192;-87
2023/07/03 09:35:05;;;;;;;12.55;8.73;;;;;;;-143.21;59.06;70787.44;5131980;28;20638;-87
2023/07/03 09:37:31;;;;;;;10.45;9.10;;;;;;;-143.21;58.85;70781.50;5131908;28;20236;-87
2023/07/03 09:39:58;;;;;;;12.05;9.15;;;;;;;-143.21;59.42;70777.53;5130863;28;20195;-87
2023/07/03 09:42:27;;;;;;;12.18;9.40;;;;;;;-143.21;58.81;70771.56;5132618;28;20223;-87
2023/07/03 09:44:54;;;;;;;11.98;9.07;;;;;;;-143.21;57.50;70755.72;5131920;27;20211;-87
2023/07/03 09:47:28;;;;;;;10.40;8.90;;;;;;;-143.21;57.37;70733.91;5150889;27;20900;-87
2023/07/03 09:50:02;;;;;;;10.50;8.63;;;;;;;-143.21;57.25;70704.19;5152787;27;20668;-87
2023/07/03 09:52:29;;;;;;;12.10;9.10;;;;;;;-143.21;56.72;70678.41;5153173;27;20199;-85
2023/07/03 09:55:02;;;;;;;12.32;9.05;;;;;;;-143.21;56.03;70666.50;5156189;27;20187;-85
2023/07/03 09:57:29;;;;;;;14.23;9.40;;;;;;;-143.21;56.14;70658.59;5168914;27;20195;-85
2023/07/03 10:00:10;;;;;;;12.50;8.85;;;;;;;-143.21;55.50;70642.72;5164599;27;20194;-85
2023/07/03 10:02:39;;;;;;;10.40;8.48;;;;;;;-143.21;54.45;70616.97;5160500;27;20260;-85
2023/07/03 10:05:06;;;;;;;11.90;8.65;;;;;;;-143.21;54.49;70607.06;5137926;27;20188;-85
2023/07/03 10:07:39;;;;;;;14.05;8.32;;;;;;;-143.21;54.25;70595.16;5132681;28;20248;-86
2023/07/03 10:10:21;;;;;;;11.13;8.63;;;;;;;-143.21;54.44;70609.03;5133577;28;20183;-88
2023/07/03 10:12:58;;;;;;;12.90;8.18;;;;;;;-143.21;55.30;70611.00;5134143;28;20183;-87
2023/07/03 10:15:29;;;;;;;12.23;8.50;;;;;;;-143.21;55.17;70622.91;5133075;28;20179;-88
2023/07/03 10:18:01;;;;;;;10.88;8.73;;;;;;;-143.21;55.11;70613.00;5132663;28;20183;-88
2023/07/03 10:20:33;;;;;;;15.25;8.50;;;;;;;-143.21;54.75;70609.03;5132949;28;20227;-88
2023/07/03 10:23:02;;;;;;;12.27;8.57;;;;;;;-143.21;54.11;70599.13;5133081;27;20256;-87
2023/07/03 10:25:33;;;;;;;9.63;8.02;;;;;;;-143.21;53.84;70585.25;5136465;27;20219;-88
2023/07/03 10:28:06;;;;;;;9.13;8.02;;;;;;;-143.21;53.08;70567.41;5136418;27;20237;-86
2023/07/03 10:30:36;;;;;;;12.85;8.10;;;;;;;-143.21;52.88;70545.59;5136488;27;20274;-86
2023/07/03 10:33:11;;;;;;;12.52;7.97;;;;;;;-143.21;53.42;70531.72;5136052;27;20191;-86
2023/07/03 10:35:42;;;;;;;10.57;7.25;;;;;;;-143.21;52.41;70511.91;5135745;27;20191;-86
2023/07/03 10:38:18;;;;;;;11.65;7.40;;;;;;;-143.21;50.54;70502.00;5136056;27;20212;-86
2023/07/03 10:40:55;;;;;;;11.13;7.25;;;;;;;-143.21;51.31;70492.09;5135503;27;20181;-86
2023/07/03 10:43:25;;;;;;;16.00;7.22;;;;;;;-143.21;50.21;70468.31;5135630;27;20213;-86
2023/07/03 10:45:53;;;;;;;10.52;6.78;;;;;;;-143.21;49.72;70452.44;5136105;27;20562;-87
2023/07/03 10:48:24;;;;;;;9.13;6.85;;;;;;;-143.21;49.72;70422.72;5135246;27;20199;-85
2023/07/03 10:50:59;;;;;;;9.52;6.95;;;;;;;-143.21;49.91;70400.91;5134931;27;20587;-86
2023/07/03 10:53:31;;;;;;;11.95;7.20;;;;;;;-143.21;49.08;70392.97;5135235;27;20198;-87
2023/07/03 10:56:07;;;;;;;11.07;7.20;;;;;;;-143.21;49.26;70383.06;5135379;27;20183;-87
2023/07/03 10:58:41;;;;;;;10.18;6.90;;;;;;;-143.21;47.92;70369.19;5134922;27;20542;-86
2023/07/03 11:01:27;;;;;;;11.30;6.53;;;;;;;-143.21;48.68;70379.09;5134985;27;20636;-86
2023/07/03 11:04:04;;;;;;;9.40;7.18;;;;;;;-143.21;49.75;70383.06;5135215;27;20184;-85
2023/07/03 11:06:40;;;;;;;12.82;6.80;;;;;;;-143.21;49.55;70391.00;5133694;27;20186;-86
2023/07/03 11:09:13;;;;;;;10.07;7.10;;;;;;;-143.21;50.55;70428.66;5133726;27;20221;-86
2023/07/03 11:11:48;;;;;;;8.30;6.72;;;;;;;-143.21;51.11;70494.06;5134607;27;20188;-86
2023/07/03 11:14:21;;;;;;;8.45;7.35;;;;;;;-143.21;52.23;70543.63;5135033;27;20223;-86